Time;durP1;ratioP1;P1;durP2;ratioP2;P2;SDS_P1;SDS_P2;PMS_P1;PMS_P2;Temp;Humidity;BMP_temperature;BMP_pressure;BME280_temperature;BME280_humidity;BME280_pressure;Samples;Min_cycle;Max_cycle;Signal;HPM_P1;HPM_P2
2023/12/23 00:00:03;;;;;;;5.82;2.55;;;;;;;6.33;47.73;97826.22;4960588;28;20030;-88
2023/12/23 00:02:28;;;;;;;3.75;2.40;;;;;;;6.21;47.60;97810.56;4960407;28;20081;-88
2023/12/23 00:04:54;;;;;;;5.07;2.30;;;;;;;6.18;47.62;97813.75;4960004;28;20030;-88
2023/12/23 00:07:19;;;;;;;4.00;2.45;;;;;;;6.21;48.21;97815.91;4950609;28;20023;-88
2023/12/23 00:09:44;;;;;;;6.05;3.45;;;;;;;6.15;48.02;97827.69;4957565;28;20030;-87
2023/12/23 00:12:10;;;;;;;7.72;3.50;;;;;;;6.16;48.06;97823.94;4951726;28;20027;-87
2023/12/23 00:14:36;;;;;;;10.75;4.78;;;;;;;6.21;48.38;97846.09;4955365;28;20377;-88
2023/12/23 00:17:01;;;;;;;9.00;5.13;;;;;;;6.07;48.67;97824.53;4966114;28;20453;-88
2023/12/23 00:19:27;;;;;;;10.02;5.30;;;;;;;6.22;48.72;97855.69;4927788;29;20034;-87
2023/12/23 00:21:52;;;;;;;9.50;5.07;;;;;;;6.25;49.11;97849.00;4940891;29;20505;-88
2023/12/23 00:24:18;;;;;;;5.68;3.60;;;;;;;6.11;49.29;97832.78;4940932;28;20491;-88
2023/12/23 00:26:43;;;;;;;5.50;3.00;;;;;;;6.18;48.89;97856.53;4941339;28;20481;-88
2023/12/23 00:29:09;;;;;;;6.07;3.45;;;;;;;6.18;48.99;97833.25;4940905;29;20030;-88
2023/12/23 00:31:34;;;;;;;6.65;3.10;;;;;;;6.21;49.80;97827.38;4928927;29;20059;-87
2023/12/23 00:34:00;;;;;;;6.97;3.17;;;;;;;6.35;49.01;97851.63;4949338;28;20023;-88
2023/12/23 00:36:25;;;;;;;6.53;3.30;;;;;;;6.23;48.70;97830.56;4954048;28;20564;-88
2023/12/23 00:38:51;;;;;;;9.95;3.38;;;;;;;6.23;49.39;97827.09;4943380;28;20037;-88
2023/12/23 00:41:16;;;;;;;4.80;2.67;;;;;;;6.23;49.09;97824.44;4950321;28;20019;-88
2023/12/23 00:43:41;;;;;;;4.75;2.55;;;;;;;6.32;49.04;97827.31;4950106;28;20034;-88
2023/12/23 00:46:10;;;;;;;5.32;3.00;;;;;;;6.35;49.75;97838.25;4938698;28;20031;-88
2023/12/23 00:48:35;;;;;;;6.55;3.17;;;;;;;6.30;49.39;97832.94;4930343;29;20034;-88
2023/12/23 00:51:01;;;;;;;6.85;3.58;;;;;;;6.12;50.10;97805.00;4941006;29;20075;-88
2023/12/23 00:53:26;;;;;;;12.57;4.90;;;;;;;6.15;49.79;97809.00;4955739;29;20055;-88
2023/12/23 00:55:52;;;;;;;6.75;3.58;;;;;;;6.15;50.79;97833.03;4940343;29;20066;-88
2023/12/23 00:58:18;;;;;;;9.80;4.55;;;;;;;6.02;50.29;97808.53;4956013;28;20031;-88
2023/12/23 01:00:44;;;;;;;8.82;4.50;;;;;;;5.98;51.14;97801.34;4940978;29;20058;-87
2023/12/23 01:03:10;;;;;;;4.80;2.72;;;;;;;6.04;50.77;97826.97;4939895;29;20035;-88
2023/12/23 01:05:35;;;;;;;11.27;7.03;;;;;;;6.09;50.50;97836.81;4939551;29;20031;-88
2023/12/23 01:08:01;;;;;;;7.60;4.35;;;;;;;6.12;50.70;97842.41;4940921;29;20401;-88
2023/12/23 01:10:27;;;;;;;7.60;4.72;;;;;;;5.89;51.24;97825.13;4924729;29;20461;-88
2023/12/23 01:12:52;;;;;;;9.32;4.68;;;;;;;5.91;51.98;97814.19;4945477;29;20046;-87
2023/12/23 01:15:18;;;;;;;6.88;4.18;;;;;;;5.92;51.45;97813.13;4948452;28;20031;-87
2023/12/23 01:17:44;;;;;;;7.45;3.45;;;;;;;5.94;51.66;97810.97;4950269;28;20046;-87
2023/12/23 01:20:10;;;;;;;3.60;2.70;;;;;;;5.98;51.71;97818.19;4956804;28;20057;-88
2023/12/23 01:22:35;;;;;;;4.93;3.00;;;;;;;6.18;51.61;97859.19;4951585;28;20027;-89
2023/12/23 01:25:01;;;;;;;5.07;3.08;;;;;;;6.10;51.71;97836.56;4956243;28;20031;-88
2023/12/23 01:27:26;;;;;;;4.88;2.90;;;;;;;6.17;52.35;97838.91;4958860;28;20038;-88
2023/12/23 01:29:52;;;;;;;4.32;2.88;;;;;;;6.08;51.92;97820.00;4942605;28;20034;-87
2023/12/23 01:32:17;;;;;;;4.20;2.67;;;;;;;6.10;51.99;97815.16;4958645;28;20034;-88
2023/12/23 01:34:43;;;;;;;4.78;2.85;;;;;;;6.22;52.31;97825.50;4959108;28;20042;-88
2023/12/23 01:37:08;;;;;;;5.35;3.03;;;;;;;6.16;52.74;97811.38;4942730;28;20034;-88
2023/12/23 01:39:33;;;;;;;4.53;2.85;;;;;;;6.21;53.32;97813.22;4942993;28;20022;-88
2023/12/23 01:41:59;;;;;;;4.00;2.70;;;;;;;6.20;52.97;97799.03;4967076;28;20031;-88
2023/12/23 01:44:24;;;;;;;4.22;2.95;;;;;;;6.13;52.28;97779.06;4950689;28;20042;-88
2023/12/23 01:46:52;;;;;;;4.25;3.08;;;;;;;6.20;52.54;97792.91;4953174;28;20027;-87
2023/12/23 01:49:18;;;;;;;6.28;2.83;;;;;;;6.23;52.44;97784.34;4959151;28;20029;-87
2023/12/23 01:51:43;;;;;;;4.53;2.75;;;;;;;6.12;51.25;97759.59;4958437;28;20034;-88
2023/12/23 01:54:09;;;;;;;8.98;3.20;;;;;;;6.11;52.01;97768.66;4959063;28;20107;-87
2023/12/23 01:56:35;;;;;;;10.93;4.57;;;;;;;6.18;51.91;97779.81;4942698;28;20031;-88
2023/12/23 01:59:02;;;;;;;8.73;4.65;;;;;;;6.15;52.21;97767.03;4959191;28;20027;-88
2023/12/23 02:01:30;;;;;;;12.90;6.35;;;;;;;6.28;51.83;97790.44;4958621;28;20019;-89
2023/12/23 02:03:56;;;;;;;13.50;7.28;;;;;;;6.15;51.70;97755.53;4959107;28;20034;-88
2023/12/23 02:06:21;;;;;;;13.93;7.43;;;;;;;6.27;51.38;97758.66;4959355;28;20023;-88
2023/12/23 02:08:46;;;;;;;12.82;7.88;;;;;;;6.13;51.36;97733.66;4958884;28;20023;-88
2023/12/23 02:11:14;;;;;;;15.00;7.85;;;;;;;6.31;51.88;97756.19;4958794;28;20022;-88
2023/12/23 02:14:09;;;;;;;10.93;5.78;;;;;;;6.31;52.08;97762.38;4958355;28;20165;-87
2023/12/23 02:16:35;;;;;;;7.13;4.53;;;;;;;6.14;51.84;97725.34;4961182;28;20039;-91
2023/12/23 02:19:00;;;;;;;9.10;4.68;;;;;;;6.21;51.85;97735.72;4947686;28;20081;-91
2023/12/23 02:21:26;;;;;;;8.65;3.88;;;;;;;6.24;51.83;97735.94;4947711;28;20023;-92
2023/12/23 02:23:51;;;;;;;8.02;4.63;;;;;;;6.22;52.48;97724.72;4964231;28;20038;-91
2023/12/23 02:26:18;;;;;;;10.05;4.75;;;;;;;6.36;52.51;97724.88;4947233;28;20023;-92
2023/12/23 02:28:43;;;;;;;10.13;5.30;;;;;;;6.18;52.95;97688.16;4964659;28;20097;-93
2023/12/23 02:31:09;;;;;;;10.13;5.22;;;;;;;6.42;52.23;97728.31;4964805;28;20466;-92
2023/12/23 02:33:34;;;;;;;8.43;4.68;;;;;;;6.37;51.70;97713.13;4947860;28;20029;-92
2023/12/23 02:36:00;;;;;;;9.15;5.03;;;;;;;6.33;51.44;97704.06;4962681;28;20033;-91
2023/12/23 02:38:26;;;;;;;10.32;4.85;;;;;;;6.37;51.92;97731.03;4963271;28;20045;-91
2023/12/23 02:40:51;;;;;;;9.30;4.60;;;;;;;6.39;51.94;97748.41;4963154;28;20026;-92
2023/12/23 02:43:17;;;;;;;9.15;3.90;;;;;;;6.29;51.37;97735.13;4960724;28;20035;-91
2023/12/23 02:45:42;;;;;;;6.50;3.63;;;;;;;6.34;50.65;97713.69;4935632;29;20462;-93
2023/12/23 02:48:08;;;;;;;10.43;3.83;;;;;;;6.44;50.61;97708.22;4946197;28;20035;-93
2023/12/23 02:50:33;;;;;;;5.80;3.17;;;;;;;6.41;51.02;97670.56;4947891;28;20409;-95
2023/12/23 02:53:01;;;;;;;5.95;3.17;;;;;;;6.32;50.90;97653.56;4963829;28;20007;-93
2023/12/23 02:55:27;;;;;;;5.53;3.75;;;;;;;6.48;51.82;97676.38;4962419;28;20045;-94
2023/12/23 02:57:52;;;;;;;5.40;3.45;;;;;;;6.31;51.57;97647.44;4948416;28;20465;-94
2023/12/23 03:00:18;;;;;;;7.00;3.80;;;;;;;6.46;51.84;97675.88;4947844;28;20027;-95
2023/12/23 03:02:43;;;;;;;6.55;3.42;;;;;;;6.40;52.29;97658.28;4963426;28;20035;-93
2023/12/23 03:05:09;;;;;;;5.45;3.65;;;;;;;6.39;52.76;97659.38;4962736;28;20026;-92
2023/12/23 03:07:34;;;;;;;10.75;3.88;;;;;;;6.39;53.14;97656.69;4963085;28;20059;-93
2023/12/23 03:10:00;;;;;;;9.10;4.32;;;;;;;6.46;52.95;97675.88;4947160;28;20500;-93
2023/12/23 03:12:26;;;;;;;7.15;4.07;;;;;;;6.31;52.65;97655.44;4947467;28;20023;-94
2023/12/23 03:14:51;;;;;;;6.88;3.85;;;;;;;6.40;53.08;97683.16;4962715;28;20027;-93
2023/12/23 03:17:17;;;;;;;6.68;4.20;;;;;;;6.37;52.42;97674.88;4946857;28;20485;-93
2023/12/23 03:19:42;;;;;;;6.65;4.07;;;;;;;6.33;52.50;97672.00;4946764;28;20022;-95
2023/12/23 03:22:11;;;;;;;8.18;4.78;;;;;;;6.24;52.00;97654.97;4963950;28;20030;-93
2023/12/23 03:24:36;;;;;;;8.93;5.10;;;;;;;6.16;51.98;97637.66;4962851;28;20027;-93
2023/12/23 03:27:02;;;;;;;11.52;5.22;;;;;;;6.25;51.26;97653.91;4962856;28;20038;-93
2023/12/23 03:29:27;;;;;;;12.98;6.25;;;;;;;6.18;52.66;97630.16;4962932;28;20405;-93
2023/12/23 03:31:53;;;;;;;12.30;7.03;;;;;;;6.18;52.75;97618.69;4962939;28;20098;-93
2023/12/23 03:34:18;;;;;;;13.35;5.63;;;;;;;6.20;52.90;97633.34;4962567;28;20041;-94
2023/12/23 03:36:44;;;;;;;10.43;5.63;;;;;;;6.14;52.50;97618.44;4947110;28;20023;-93
2023/12/23 03:39:09;;;;;;;12.85;6.38;;;;;;;6.09;53.28;97610.50;4963487;28;20037;-93
2023/12/23 03:41:35;;;;;;;19.98;7.95;;;;;;;6.07;53.71;97596.63;4946845;28;20026;-93
2023/12/23 03:44:01;;;;;;;13.20;6.57;;;;;;;5.96;52.35;97598.59;4946511;28;20473;-94
2023/12/23 03:46:27;;;;;;;12.68;6.38;;;;;;;6.05;53.12;97612.94;4962070;28;20027;-93
2023/12/23 03:48:52;;;;;;;11.77;6.00;;;;;;;6.11;52.20;97627.03;4962668;28;20067;-93
2023/12/23 03:51:18;;;;;;;12.00;5.78;;;;;;;5.93;52.75;97604.47;4963095;28;20062;-93
2023/12/23 03:53:43;;;;;;;13.27;6.50;;;;;;;5.85;52.31;97597.88;4946265;28;20066;-93
2023/12/23 03:56:10;;;;;;;12.13;6.45;;;;;;;5.86;52.20;97604.81;4946751;28;20015;-95
2023/12/23 03:58:36;;;;;;;16.48;8.27;;;;;;;5.94;51.87;97619.44;4946064;28;20023;-93
2023/12/23 04:01:02;;;;;;;10.10;5.45;;;;;;;5.90;51.82;97609.59;4962753;28;20581;-93
2023/12/23 04:03:28;;;;;;;8.32;5.00;;;;;;;6.08;51.22;97635.63;4961841;28;20053;-93
2023/12/23 04:05:53;;;;;;;6.90;4.20;;;;;;;5.95;50.80;97615.69;4945880;28;20113;-94
2023/12/23 04:08:20;;;;;;;6.60;3.83;;;;;;;5.97;50.80;97615.41;4962506;28;20456;-93
2023/12/23 04:10:45;;;;;;;6.15;4.00;;;;;;;5.85;51.04;97597.88;4946470;28;20089;-94
2023/12/23 04:13:11;;;;;;;4.35;2.75;;;;;;;5.88;50.95;97597.31;4945664;28;20027;-94
2023/12/23 04:15:36;;;;;;;5.35;2.90;;;;;;;5.85;51.25;97586.38;4946110;28;20034;-94
2023/12/23 04:18:02;;;;;;;8.95;4.75;;;;;;;5.78;53.41;97607.28;4946418;28;20097;-95
2023/12/23 04:20:28;;;;;;;8.85;4.50;;;;;;;5.74;53.58;97619.59;4961559;28;20468;-93
2023/12/23 04:22:53;;;;;;;12.85;4.72;;;;;;;5.69;53.91;97628.47;4945428;28;20037;-95
2023/12/23 04:25:19;;;;;;;8.73;5.05;;;;;;;5.59;54.14;97613.31;4946044;28;20027;-94
2023/12/23 04:27:44;;;;;;;8.25;3.78;;;;;;;5.62;53.33;97622.63;4962065;28;20022;-94
2023/12/23 04:30:11;;;;;;;6.63;3.35;;;;;;;5.64;52.74;97617.81;4945501;28;20039;-94
2023/12/23 04:32:36;;;;;;;5.65;3.10;;;;;;;5.61;52.87;97605.03;4961631;28;20033;-94
2023/12/23 04:35:03;;;;;;;3.40;2.50;;;;;;;5.70;52.22;97615.91;4947235;28;20023;-94
2023/12/23 04:37:28;;;;;;;4.68;2.72;;;;;;;5.75;52.75;97605.97;4961491;28;20022;-93
2023/12/23 04:39:54;;;;;;;6.07;3.05;;;;;;;5.73;52.98;97599.31;4945053;28;20387;-94
2023/12/23 04:42:19;;;;;;;5.03;3.30;;;;;;;5.64;53.37;97572.41;4960447;28;20460;-93
2023/12/23 04:44:45;;;;;;;6.63;3.80;;;;;;;5.80;53.64;97589.09;4945851;28;20031;-95
2023/12/23 04:47:10;;;;;;;5.40;3.13;;;;;;;5.74;53.68;97580.34;4961459;28;20035;-94
2023/12/23 04:49:37;;;;;;;8.00;4.68;;;;;;;5.83;53.89;97599.22;4945318;28;20034;-94
2023/12/23 04:52:03;;;;;;;9.15;4.63;;;;;;;5.90;54.14;97612.25;4960883;28;20200;-93
2023/12/23 04:54:29;;;;;;;7.07;4.00;;;;;;;5.83;53.96;97597.38;4944685;28;20047;-93
2023/12/23 04:56:54;;;;;;;5.00;3.88;;;;;;;5.70;53.64;97568.63;4961854;28;20031;-93
2023/12/23 04:59:20;;;;;;;14.82;4.72;;;;;;;5.66;54.70;97579.09;4957264;29;20058;-94
2023/12/23 05:01:45;;;;;;;7.50;3.50;;;;;;;5.62;55.27;97585.25;4942815;29;20039;-95
2023/12/23 05:04:11;;;;;;;6.07;3.40;;;;;;;5.82;54.77;97621.66;4926644;29;20137;-93
2023/12/23 05:06:37;;;;;;;10.02;4.25;;;;;;;5.55;54.42;97564.22;4941674;29;20486;-94
2023/12/23 05:09:08;;;;;;;13.50;6.07;;;;;;;5.56;55.21;97573.84;4926325;29;20027;-93
2023/12/23 05:11:33;;;;;;;11.07;5.50;;;;;;;5.52;55.84;97561.31;4926746;29;20118;-93
2023/12/23 05:13:59;;;;;;;10.20;5.22;;;;;;;5.49;55.43;97561.88;4940890;28;20071;-94
2023/12/23 05:16:25;;;;;;;9.98;4.95;;;;;;;5.51;55.90;97575.75;4941772;29;20123;-93
2023/12/23 05:18:50;;;;;;;10.07;4.85;;;;;;;5.49;56.24;97565.34;4941938;28;20023;-93
2023/12/23 05:21:16;;;;;;;12.15;5.45;;;;;;;5.47;55.57;97559.47;4925657;29;20030;-92
2023/12/23 05:23:41;;;;;;;8.85;4.90;;;;;;;5.50;55.42;97574.97;4925350;29;20504;-94
2023/12/23 05:26:08;;;;;;;7.30;4.68;;;;;;;5.54;55.42;97572.50;4926392;29;20031;-94
2023/12/23 05:28:34;;;;;;;11.77;5.45;;;;;;;5.45;55.44;97564.31;4926653;29;20502;-92
2023/12/23 05:31:00;;;;;;;11.63;6.03;;;;;;;5.54;55.37;97569.84;4942214;29;20038;-94
2023/12/23 05:33:28;;;;;;;13.45;5.32;;;;;;;5.52;51.20;97562.13;4925246;29;20566;-94
2023/12/23 05:35:53;;;;;;;7.32;3.63;;;;;;;5.54;49.38;97559.16;4926316;29;20027;-92
2023/12/23 05:38:19;;;;;;;7.45;4.00;;;;;;;5.57;48.92;97556.72;4926004;29;20039;-93
2023/12/23 05:40:47;;;;;;;7.97;3.97;;;;;;;5.80;49.73;97594.44;4925177;29;20067;-93
2023/12/23 05:43:12;;;;;;;5.65;3.50;;;;;;;5.75;49.57;97587.28;4925823;29;20039;-94
2023/12/23 05:45:39;;;;;;;5.32;3.55;;;;;;;5.91;48.69;97611.16;4942478;29;20090;-94
2023/12/23 05:48:05;;;;;;;7.50;3.95;;;;;;;5.81;49.92;97596.84;4956938;28;20053;-93
2023/12/23 05:50:33;;;;;;;6.35;3.30;;;;;;;5.67;50.56;97580.66;4928258;28;20015;-93
2023/12/23 05:53:01;;;;;;;5.70;3.42;;;;;;;5.77;49.98;97579.78;4931636;29;20054;-92
2023/12/23 05:55:27;;;;;;;9.23;4.97;;;;;;;5.67;52.78;97585.22;4932336;29;20129;-95
2023/12/23 05:57:54;;;;;;;17.75;6.05;;;;;;;5.65;53.10;97590.84;4932186;29;20092;-94
2023/12/23 06:00:20;;;;;;;18.88;7.57;;;;;;;5.51;54.43;97573.06;4947950;28;20026;-93
2023/12/23 06:02:46;;;;;;;14.07;7.45;;;;;;;5.69;54.52;97619.66;4947639;29;20034;-93
2023/12/23 06:05:11;;;;;;;15.43;7.32;;;;;;;5.43;55.70;97587.81;4932536;29;20466;-95
2023/12/23 06:07:37;;;;;;;13.05;7.18;;;;;;;5.51;55.68;97597.88;4947306;29;20117;-93
2023/12/23 06:10:05;;;;;;;19.17;10.15;;;;;;;5.57;55.91;97610.13;4948318;28;20015;-95
2023/12/23 06:12:31;;;;;;;17.45;8.15;;;;;;;5.47;55.64;97586.19;4948595;28;20031;-94
2023/12/23 06:14:58;;;;;;;13.38;7.43;;;;;;;5.59;55.53;97586.63;4947164;29;20092;-94
2023/12/23 06:17:32;;;;;;;16.85;8.88;;;;;;;5.51;54.97;97581.09;4964140;28;20031;-94
2023/12/23 06:19:58;;;;;;;28.80;15.43;;;;;;;5.29;56.40;97552.94;4934024;29;20027;-96
2023/12/23 06:22:24;;;;;;;17.42;7.35;;;;;;;5.56;54.84;97578.34;4949595;28;20493;-96
2023/12/23 06:24:49;;;;;;;11.52;7.05;;;;;;;5.76;54.65;97598.75;4947831;28;20027;-95
2023/12/23 06:27:15;;;;;;;11.20;4.85;;;;;;;5.57;53.84;97570.06;4932856;29;20062;-96
2023/12/23 06:29:40;;;;;;;17.50;6.18;;;;;;;5.56;54.13;97579.19;4933867;29;20050;-96
2023/12/23 06:32:06;;;;;;;12.25;5.95;;;;;;;5.65;53.66;97574.81;4948771;28;20090;-95
2023/12/23 06:34:31;;;;;;;12.80;5.53;;;;;;;5.79;53.75;97588.31;4949180;28;20039;-96
2023/12/23 06:36:57;;;;;;;16.75;5.85;;;;;;;5.77;53.65;97585.13;4950215;29;20098;-96
2023/12/23 06:39:24;;;;;;;15.32;7.28;;;;;;;5.74;54.18;97577.66;4933921;29;20035;-95
2023/12/23 06:41:49;;;;;;;13.57;7.65;;;;;;;5.91;54.14;97598.59;4950488;28;20066;-94
2023/12/23 06:44:15;;;;;;;18.73;8.38;;;;;;;5.87;54.69;97587.72;4933157;29;20038;-95
2023/12/23 06:46:40;;;;;;;14.68;7.78;;;;;;;6.08;55.38;97624.94;4948644;28;20062;-95
2023/12/23 06:49:06;;;;;;;15.43;7.18;;;;;;;5.69;54.63;97590.28;4932345;29;20023;-95
2023/12/23 06:51:32;;;;;;;13.00;7.20;;;;;;;5.82;54.86;97602.97;4948587;28;20015;-92
2023/12/23 06:53:58;;;;;;;23.05;13.50;;;;;;;5.84;55.51;97601.63;4949646;28;20114;-95
2023/12/23 06:56:23;;;;;;;18.00;7.97;;;;;;;5.87;56.00;97629.63;4950644;28;20524;-94
2023/12/23 06:58:49;;;;;;;17.88;8.95;;;;;;;5.91;55.89;97624.53;4934183;29;20035;-94
2023/12/23 07:01:14;;;;;;;21.25;7.65;;;;;;;5.97;56.20;97645.59;4932641;29;20051;-94
2023/12/23 07:03:41;;;;;;;14.45;8.32;;;;;;;5.96;56.13;97645.91;4942765;28;20074;-93
2023/12/23 07:06:06;;;;;;;25.65;12.57;;;;;;;5.78;56.27;97637.44;4943694;29;20035;-93
2023/12/23 07:08:33;;;;;;;23.83;11.88;;;;;;;5.62;56.54;97641.31;4945102;29;20035;-93
2023/12/23 07:10:59;;;;;;;25.05;12.07;;;;;;;5.71;56.69;97649.53;4944538;28;20028;-92
2023/12/23 07:13:25;;;;;;;21.30;11.68;;;;;;;5.78;56.99;97684.72;4943464;29;20540;-95
2023/12/23 07:15:50;;;;;;;29.17;14.30;;;;;;;5.78;56.06;97695.41;4944594;28;20489;-93
2023/12/23 07:18:16;;;;;;;18.13;7.75;;;;;;;5.82;52.98;97697.25;4945014;29;20042;-93
2023/12/23 07:20:42;;;;;;;5.25;3.10;;;;;;;5.95;50.96;97741.25;4943150;29;20103;-93
2023/12/23 07:23:10;;;;;;;7.75;3.30;;;;;;;6.13;50.37;97768.38;4928167;29;20027;-94
2023/12/23 07:25:36;;;;;;;4.75;3.15;;;;;;;6.16;51.55;97776.63;4944418;29;20027;-94
2023/12/23 07:28:02;;;;;;;5.45;3.40;;;;;;;6.36;51.54;97798.94;4944695;28;20031;-96
2023/12/23 07:30:27;;;;;;;6.28;3.55;;;;;;;6.36;53.68;97801.63;4928514;29;20105;-92
2023/12/23 07:32:53;;;;;;;7.50;3.78;;;;;;;6.40;54.61;97775.91;4945825;29;20647;-94
2023/12/23 07:35:19;;;;;;;9.13;5.90;;;;;;;6.43;56.17;97796.72;4927496;29;20027;-94
2023/12/23 07:37:44;;;;;;;18.90;9.18;;;;;;;6.37;55.88;97773.78;4959869;28;20074;-95
2023/12/23 07:40:10;;;;;;;21.45;11.77;;;;;;;6.56;56.80;97808.69;4944240;28;20046;-94
2023/12/23 07:42:36;;;;;;;22.10;13.48;;;;;;;6.58;58.75;97795.81;4944532;28;20050;-94
2023/12/23 07:45:02;;;;;;;26.08;13.40;;;;;;;6.24;59.60;97773.34;4943221;29;20023;-94
2023/12/23 07:47:28;;;;;;;31.13;16.02;;;;;;;6.32;60.18;97805.94;4942062;28;20035;-94
2023/12/23 07:49:53;;;;;;;28.85;15.00;;;;;;;6.24;60.29;97810.78;4942364;28;20066;-94
2023/12/23 07:52:19;;;;;;;26.58;14.25;;;;;;;6.41;60.22;97839.00;4943623;29;20031;-93
2023/12/23 07:54:44;;;;;;;25.65;15.73;;;;;;;6.48;60.62;97868.91;4941814;29;20501;-95
2023/12/23 07:57:10;;;;;;;33.78;16.05;;;;;;;6.11;62.72;97805.28;4942788;28;20058;-94
2023/12/23 07:59:35;;;;;;;31.92;15.45;;;;;;;6.22;61.01;97855.69;4943549;28;20139;-93
2023/12/23 08:05:23;;;;;;;31.20;15.43;;;;;;;6.18;61.53;97876.03;4959134;29;20524;-93
2023/12/23 08:07:56;;;;;;;21.58;12.00;;;;;;;6.11;61.65;97877.41;4942385;28;20050;-94
2023/12/23 08:10:22;;;;;;;19.55;10.52;;;;;;;6.41;61.73;97946.75;4943391;28;20037;-94
2023/12/23 08:12:48;;;;;;;14.20;7.63;;;;;;;6.15;60.96;97922.03;4941835;28;20114;-94
2023/12/23 08:15:14;;;;;;;16.35;7.10;;;;;;;6.11;62.04;97922.84;4925581;29;20035;-96
2023/12/23 08:17:40;;;;;;;12.18;7.45;;;;;;;6.00;63.13;97914.88;4942918;28;20066;-94
2023/12/23 08:20:09;;;;;;;12.00;6.35;;;;;;;6.05;63.65;97927.41;4925914;29;20035;-94
2023/12/23 08:22:37;;;;;;;11.18;5.28;;;;;;;5.99;64.99;97926.63;4958053;28;20038;-94
2023/12/23 08:25:03;;;;;;;8.50;4.30;;;;;;;6.07;65.42;97906.56;4941436;29;20127;-93
2023/12/23 08:27:29;;;;;;;9.05;4.45;;;;;;;5.96;67.87;97924.50;4926709;29;20486;-94
2023/12/23 08:29:54;;;;;;;5.72;3.13;;;;;;;6.21;68.46;97936.16;4942306;28;20034;-94
2023/12/23 08:32:20;;;;;;;5.65;2.63;;;;;;;6.19;69.09;97908.91;4942188;28;20569;-93
2023/12/23 08:34:51;;;;;;;6.05;2.22;;;;;;;6.34;68.82;97906.13;4943081;28;20037;-95
2023/12/23 08:37:20;;;;;;;2.35;1.70;;;;;;;6.59;69.16;97933.78;4927547;29;20031;-95
2023/12/23 08:39:46;;;;;;;3.22;2.10;;;;;;;6.71;68.99;97928.91;4927381;29;20062;-95
2023/12/23 08:42:12;;;;;;;5.13;1.90;;;;;;;6.61;68.91;97911.03;4942599;29;20058;-95
2023/12/23 08:44:37;;;;;;;4.68;2.90;;;;;;;6.82;68.77;97934.97;4941778;29;20027;-95
2023/12/23 08:47:03;;;;;;;2.63;1.50;;;;;;;6.79;68.14;97928.31;4942482;28;20031;-95
2023/12/23 08:49:29;;;;;;;3.97;2.28;;;;;;;6.93;67.87;97927.66;4942451;28;20023;-95
2023/12/23 08:51:54;;;;;;;3.17;1.73;;;;;;;7.03;67.88;97941.75;4926935;29;20063;-94
2023/12/23 08:54:20;;;;;;;2.88;1.65;;;;;;;7.12;67.79;97928.56;4926095;29;20047;-93
2023/12/23 08:56:46;;;;;;;2.78;1.38;;;;;;;7.17;69.27;97922.38;4942028;28;20062;-95
2023/12/23 08:59:11;;;;;;;6.32;2.50;;;;;;;7.15;68.50;97919.97;4957627;28;20031;-96
2023/12/23 09:01:40;;;;;;;3.53;1.50;;;;;;;7.16;67.66;97912.72;4941578;28;20019;-96
2023/12/23 09:04:05;;;;;;;3.42;1.90;;;;;;;7.33;67.18;97977.38;4942517;28;20114;-94
2023/12/23 09:06:31;;;;;;;3.10;1.60;;;;;;;7.36;67.00;98024.19;4926029;29;20512;-96
2023/12/23 09:08:57;;;;;;;2.50;1.40;;;;;;;7.16;67.31;97983.16;4941398;28;20494;-94
2023/12/23 09:11:28;;;;;;;3.20;1.63;;;;;;;7.31;67.15;97995.59;4941422;28;20038;-94
2023/12/23 09:13:53;;;;;;;6.88;1.45;;;;;;;7.16;66.49;97980.47;4925994;29;20027;-94
2023/12/23 09:16:19;;;;;;;1.73;1.10;;;;;;;7.20;66.41;97951.25;4925076;29;20509;-95
2023/12/23 09:18:44;;;;;;;2.40;1.50;;;;;;;7.17;67.65;97955.28;4940948;29;20027;-93
2023/12/23 09:21:13;;;;;;;3.60;1.50;;;;;;;7.35;65.61;97988.59;4942525;28;20105;-92
2023/12/23 09:23:39;;;;;;;2.35;1.50;;;;;;;7.40;65.71;97969.00;4941996;28;20023;-94
2023/12/23 09:26:04;;;;;;;2.30;1.40;;;;;;;7.41;65.13;97967.94;4925161;29;20034;-95
2023/12/23 09:28:30;;;;;;;2.65;1.92;;;;;;;7.21;65.95;97937.59;4943475;28;20038;-91
2023/12/23 09:30:58;;;;;;;2.88;1.70;;;;;;;7.14;65.85;97953.19;4941623;28;20031;-94
2023/12/23 09:33:24;;;;;;;4.28;2.53;;;;;;;7.37;66.24;97981.09;4942081;29;20039;-92
2023/12/23 09:35:49;;;;;;;2.63;1.60;;;;;;;7.11;65.90;97967.09;4941226;28;20031;-94
2023/12/23 09:38:15;;;;;;;2.00;1.38;;;;;;;7.26;65.38;97974.22;4941549;29;20039;-93
2023/12/23 09:40:42;;;;;;;2.83;1.42;;;;;;;7.28;64.14;97972.06;4926069;29;20386;-93
2023/12/23 09:43:08;;;;;;;5.85;1.25;;;;;;;7.24;64.82;97974.50;4956985;28;20475;-93
2023/12/23 09:45:33;;;;;;;2.90;1.50;;;;;;;7.15;65.38;97959.31;4960302;28;20155;-94
2023/12/23 09:48:00;;;;;;;2.22;1.38;;;;;;;7.47;64.37;97989.03;4961171;28;20496;-95
2023/12/23 09:50:26;;;;;;;2.05;1.23;;;;;;;7.40;64.63;97990.44;4944680;28;20034;-94
2023/12/23 09:52:52;;;;;;;3.20;1.90;;;;;;;7.42;65.18;97964.97;4961273;28;20023;-94
2023/12/23 09:55:17;;;;;;;3.30;1.77;;;;;;;7.58;64.57;97979.00;4944641;28;20054;-93
2023/12/23 09:57:45;;;;;;;4.85;1.77;;;;;;;7.56;64.17;97980.38;4945981;28;20035;-94
2023/12/23 10:00:16;;;;;;;4.00;1.80;;;;;;;7.51;64.16;97981.22;4945526;28;20097;-93
2023/12/23 10:02:42;;;;;;;2.03;1.27;;;;;;;7.54;65.19;97990.59;4960682;28;20081;-89
2023/12/23 10:05:08;;;;;;;2.38;1.70;;;;;;;7.64;65.44;97979.78;4959917;28;20034;-93
2023/12/23 10:07:33;;;;;;;2.47;1.50;;;;;;;7.66;65.33;97986.44;4961307;28;20030;-92
2023/12/23 10:09:59;;;;;;;2.63;1.60;;;;;;;7.61;65.05;97996.38;4943520;28;20026;-93
2023/12/23 10:12:27;;;;;;;2.60;1.35;;;;;;;7.65;63.92;98002.78;4946204;28;20034;-93
2023/12/23 10:15:31;;;;;;;3.72;1.83;;;;;;;7.81;64.14;98041.75;4961441;28;20027;-94
2023/12/23 10:18:05;;;;;;;2.83;1.70;;;;;;;7.67;64.08;98014.81;4978082;28;20481;-93
2023/12/23 10:20:32;;;;;;;7.10;1.88;;;;;;;7.80;64.00;98042.84;4961379;28;20055;-94
2023/12/23 10:22:57;;;;;;;5.53;2.17;;;;;;;8.01;62.01;98039.94;4959925;28;20038;-95
2023/12/23 10:25:23;;;;;;;2.72;1.80;;;;;;;7.80;62.75;98037.47;4961248;28;20026;-94
2023/12/23 10:27:48;;;;;;;3.92;2.00;;;;;;;7.90;61.56;98088.28;4944340;28;20023;-94
2023/12/23 10:30:17;;;;;;;3.63;1.55;;;;;;;7.71;61.95;98059.81;4959676;28;20026;-94
2023/12/23 10:32:43;;;;;;;5.55;1.80;;;;;;;7.75;61.70;98083.06;4960804;28;20057;-95
2023/12/23 10:35:10;;;;;;;4.15;1.85;;;;;;;7.56;62.25;98053.50;4960514;28;20035;-93
2023/12/23 10:37:39;;;;;;;2.65;1.30;;;;;;;7.74;62.59;98105.59;4946110;28;20121;-93
2023/12/23 10:40:20;;;;;;;4.05;2.30;;;;;;;7.57;63.51;98065.00;4964446;28;20473;-94
2023/12/23 10:42:47;;;;;;;2.78;1.50;;;;;;;7.74;62.44;98091.38;4964688;28;20058;-93
2023/12/23 10:45:13;;;;;;;2.92;1.70;;;;;;;7.75;62.69;98099.13;4964023;28;20039;-93
2023/12/23 10:47:38;;;;;;;7.13;2.50;;;;;;;7.65;61.50;98067.88;4962994;28;20066;-94
2023/12/23 10:50:05;;;;;;;3.22;1.95;;;;;;;7.75;61.17;98107.19;4964023;28;20186;-94
2023/12/23 10:52:31;;;;;;;1.70;1.20;;;;;;;7.63;60.81;98112.88;4964921;28;20073;-94
2023/12/23 10:54:56;;;;;;;1.85;1.38;;;;;;;7.56;61.45;98101.72;4948334;28;20082;-94
2023/12/23 10:57:25;;;;;;;2.10;1.48;;;;;;;7.65;62.01;98110.72;4963239;28;20030;-96
2023/12/23 10:59:50;;;;;;;2.45;1.42;;;;;;;7.62;61.61;98091.75;4965258;28;20034;-93
2023/12/23 11:02:19;;;;;;;5.22;2.47;;;;;;;7.52;62.91;98086.47;4963804;28;20492;-95
2023/12/23 11:04:49;;;;;;;2.80;1.60;;;;;;;7.62;61.92;98075.69;4962651;28;20101;-93
2023/12/23 11:07:20;;;;;;;3.10;1.80;;;;;;;7.75;62.30;98104.50;4963030;28;20027;-94
2023/12/23 11:09:46;;;;;;;2.80;1.60;;;;;;;7.63;61.30;98104.84;4980385;28;20094;-96
2023/12/23 11:12:12;;;;;;;2.58;1.27;;;;;;;7.68;61.64;98110.19;4963503;28;20137;-94
2023/12/23 11:14:37;;;;;;;4.13;2.08;;;;;;;7.61;61.43;98069.50;4947667;28;20042;-94
2023/12/23 11:17:26;;;;;;;4.22;2.33;;;;;;;7.73;59.50;98065.69;4946634;28;20031;-93
2023/12/23 11:19:54;;;;;;;9.75;4.75;;;;;;;7.92;57.78;98095.25;4962798;28;20035;-94
2023/12/23 11:22:29;;;;;;;2.80;1.52;;;;;;;7.95;56.36;98098.16;4964131;28;20023;-94
2023/12/23 11:24:55;;;;;;;2.13;1.10;;;;;;;7.92;56.18;98093.34;4962594;28;20030;-94
2023/12/23 11:27:37;;;;;;;3.25;1.70;;;;;;;7.58;56.73;98075.44;4962405;28;20037;-93
2023/12/23 11:30:09;;;;;;;1.98;1.30;;;;;;;7.44;56.53;98077.16;4962998;28;20051;-94
2023/12/23 11:32:38;;;;;;;2.45;1.30;;;;;;;7.69;56.76;98087.66;4963078;28;20113;-94
2023/12/23 11:35:22;;;;;;;3.05;1.67;;;;;;;7.53;55.83;98088.84;4951022;28;20565;-92
2023/12/23 11:37:54;;;;;;;5.07;1.20;;;;;;;7.61;54.56;98131.13;4946086;28;20058;-93